createdAt,value
2022-11-16T00:04:35.065Z,11.90
2022-11-16T00:10:07.095Z,11.90
2022-11-16T00:26:42.596Z,11.90
2022-11-16T00:40:33.347Z,12.00
2022-11-16T00:46:05.250Z,11.90
2022-11-16T00:51:37.240Z,11.80
2022-11-16T00:59:55.278Z,11.80
2022-11-16T01:14:06.460Z,11.60
2022-11-16T01:19:39.454Z,11.50
2022-11-16T01:25:12.767Z,11.50
2022-11-16T01:33:40.625Z,11.50
2022-11-16T01:42:18.509Z,11.50
2022-11-16T01:45:15.064Z,11.50
2022-11-16T01:53:37.440Z,11.50
2022-11-16T01:56:25.306Z,11.50
2022-11-16T02:02:12.286Z,11.50
2022-11-16T02:04:59.815Z,11.50
2022-11-16T02:11:29.722Z,11.50
2022-11-16T02:14:34.591Z,11.40
2022-11-16T02:17:42.453Z,11.30
2022-11-16T02:20:59.109Z,11.20
2022-11-16T02:24:04.380Z,11.20
2022-11-16T02:27:14.727Z,11.20
2022-11-16T02:33:07.069Z,11.00
2022-11-16T02:35:56.384Z,10.90
2022-11-16T02:38:51.369Z,10.90
2022-11-16T02:41:41.311Z,10.90
2022-11-16T02:44:35.266Z,10.80
2022-11-16T02:47:26.203Z,10.80
2022-11-16T02:50:16.235Z,10.80
2022-11-16T02:53:03.175Z,10.80
2022-11-16T03:01:36.739Z,10.80
2022-11-16T03:04:37.709Z,10.80
2022-11-16T03:07:29.150Z,10.00
2022-11-16T03:10:37.243Z,10.70
2022-11-16T03:13:28.727Z,10.70
2022-11-16T03:16:23.370Z,10.70
2022-11-16T03:19:14.352Z,10.60
2022-11-16T03:22:10.702Z,10.60
2022-11-16T03:24:57.501Z,10.50
2022-11-16T03:28:06.816Z,10.40
2022-11-16T03:30:58.306Z,10.40
2022-11-16T03:33:50.719Z,10.40
2022-11-16T03:36:40.687Z,10.40
2022-11-16T03:39:32.279Z,10.40
2022-11-16T03:42:19.635Z,10.30
2022-11-16T03:58:57.474Z,10.20
2022-11-16T04:14:09.188Z,10.10
2022-11-16T04:23:32.047Z,10.00
2022-11-16T04:32:08.708Z,10.00
2022-11-16T04:37:59.624Z,10.00
2022-11-16T04:55:02.285Z,10.00
2022-11-16T05:17:12.486Z,10.00
2022-11-16T05:29:04.595Z,9.90
2022-11-16T05:40:12.476Z,9.90
2022-11-16T05:45:56.414Z,10.00
2022-11-16T05:54:21.119Z,9.90
2022-11-16T06:08:13.147Z,9.90
2022-11-16T06:11:02.959Z,9.90
2022-11-16T06:30:40.567Z,9.90
2022-11-16T06:39:05.571Z,10.00
2022-11-16T07:09:58.640Z,9.90
2022-11-16T07:12:45.278Z,9.90
2022-11-16T07:15:33.834Z,9.90
2022-11-16T07:21:14.753Z,9.90
2022-11-16T07:35:38.462Z,9.80
2022-11-16T07:41:15.308Z,9.90
2022-11-16T08:01:15.015Z,9.80
2022-11-16T08:26:22.044Z,9.90
2022-11-16T08:43:14.251Z,10.00
2022-11-16T09:11:04.995Z,10.30
2022-11-16T09:13:52.638Z,10.30
2022-11-16T09:22:09.829Z,10.30
2022-11-16T09:33:13.297Z,10.20
2022-11-16T09:36:08.831Z,10.30
2022-11-16T09:45:00.134Z,10.30
2022-11-16T09:47:49.454Z,10.30
2022-11-16T09:50:44.265Z,10.30
2022-11-16T09:53:39.169Z,10.30
2022-11-16T09:56:27.004Z,8.70
2022-11-16T09:59:21.417Z,10.40
2022-11-16T10:02:37.093Z,10.40
2022-11-16T10:05:29.569Z,10.50
2022-11-16T10:08:46.659Z,10.50
2022-11-16T10:11:46.328Z,10.40
2022-11-16T10:15:04.828Z,10.60
2022-11-16T10:18:11.774Z,10.60
2022-11-16T10:21:16.996Z,10.50
2022-11-16T10:24:17.142Z,10.50
2022-11-16T10:27:38.141Z,10.50
2022-11-16T10:33:16.860Z,10.50
2022-11-16T10:36:06.607Z,10.30
2022-11-16T10:41:43.425Z,10.30
2022-11-16T10:44:41.952Z,10.40
2022-11-16T10:47:36.634Z,10.40
2022-11-16T10:50:42.078Z,10.50
2022-11-16T10:53:35.412Z,10.60
2022-11-16T10:59:12.377Z,10.80
2022-11-16T11:05:14.103Z,10.80
2022-11-16T11:08:11.787Z,10.90
2022-11-16T11:11:03.184Z,10.90
2022-11-16T11:14:09.438Z,11.50
2022-11-16T11:22:28.246Z,11.00
2022-11-16T11:25:25.081Z,10.90
2022-11-16T11:28:27.605Z,11.00
2022-11-16T11:31:25.771Z,11.20
2022-11-16T11:34:30.018Z,11.20
2022-11-16T11:37:36.642Z,11.30
2022-11-16T11:40:27.436Z,11.40
2022-11-16T11:43:23.795Z,11.40
2022-11-16T11:46:50.237Z,11.30
2022-11-16T11:49:39.445Z,11.30
2022-11-16T11:52:36.999Z,11.10
2022-11-16T11:58:16.616Z,11.20
2022-11-16T12:04:18.461Z,11.10
2022-11-16T12:07:42.707Z,13.00
2022-11-16T12:10:49.046Z,10.90
2022-11-16T12:13:54.875Z,10.90
2022-11-16T12:17:20.436Z,10.80
2022-11-16T12:20:17.091Z,10.90
2022-11-16T12:23:36.484Z,10.90
2022-11-16T12:26:28.230Z,10.90
2022-11-16T12:29:16.717Z,10.90
2022-11-16T12:32:50.555Z,10.90
2022-11-16T12:35:58.053Z,11.10
2022-11-16T12:39:21.256Z,11.20
2022-11-16T12:42:09.310Z,11.10
2022-11-16T12:45:17.653Z,10.90
2022-11-16T12:48:34.516Z,8.70
2022-11-16T12:51:37.045Z,11.20
2022-11-16T12:55:19.226Z,11.10
2022-11-16T12:58:28.566Z,11.20
2022-11-16T13:01:24.722Z,11.30
2022-11-16T13:07:11.195Z,11.40
2022-11-16T13:10:09.512Z,11.40
2022-11-16T13:16:10.687Z,11.60
2022-11-16T13:18:58.055Z,11.40
2022-11-16T13:21:49.722Z,11.40
2022-11-16T13:24:38.195Z,11.40
2022-11-16T13:27:53.307Z,11.50
2022-11-16T13:30:58.869Z,11.50
2022-11-16T13:33:51.185Z,11.60
2022-11-16T13:39:58.660Z,11.50
2022-11-16T13:43:01.947Z,11.60
2022-11-16T13:45:50.125Z,11.60
2022-11-16T13:48:38.028Z,11.60
2022-11-16T13:57:33.863Z,11.40
2022-11-16T14:00:33.300Z,11.20
2022-11-16T14:03:18.623Z,11.10
2022-11-16T14:06:13.312Z,11.00
2022-11-16T14:08:59.947Z,10.90
2022-11-16T14:11:45.414Z,10.90
2022-11-16T14:15:04.661Z,10.90
2022-11-16T14:17:57.650Z,10.90
2022-11-16T14:20:56.980Z,10.80
2022-11-16T14:24:10.404Z,10.80
2022-11-16T14:27:06.279Z,9.30
2022-11-16T14:30:10.169Z,10.80
2022-11-16T14:32:57.520Z,7.90
2022-11-16T14:38:42.010Z,10.80
2022-11-16T14:44:19.442Z,10.40
2022-11-16T14:47:06.018Z,10.40
2022-11-16T14:52:43.661Z,10.30
2022-11-16T14:58:20.501Z,10.20
2022-11-16T15:01:12.979Z,10.00
2022-11-16T15:04:10.044Z,9.90
2022-11-16T15:06:58.536Z,9.90
2022-11-16T15:09:53.101Z,9.80
2022-11-16T15:12:42.837Z,9.70
2022-11-16T15:15:30.213Z,9.60
2022-11-16T15:18:20.908Z,9.70
2022-11-16T15:27:31.184Z,9.70
2022-11-16T15:30:26.566Z,9.70
2022-11-16T15:33:17.562Z,9.60
2022-11-16T15:36:22.540Z,9.60
2022-11-16T15:39:23.362Z,9.60
2022-11-16T15:42:14.637Z,9.50
2022-11-16T15:45:15.470Z,9.40
2022-11-16T15:48:03.341Z,9.20
2022-11-16T15:51:05.044Z,9.30
2022-11-16T15:53:55.161Z,9.30
2022-11-16T15:56:41.155Z,9.30
2022-11-16T15:59:34.341Z,9.30
2022-11-16T16:02:27.422Z,9.40
2022-11-16T16:05:40.889Z,9.30
2022-11-16T16:11:27.367Z,9.00
2022-11-16T16:14:25.645Z,9.10
2022-11-16T16:17:20.502Z,9.10
2022-11-16T16:20:07.533Z,9.00
2022-11-16T16:22:54.136Z,9.00
2022-11-16T16:45:03.766Z,9.00
2022-11-16T16:47:49.306Z,8.90
2022-11-16T16:50:35.325Z,8.80
2022-11-16T16:53:20.823Z,8.80
2022-11-16T16:56:12.999Z,8.80
2022-11-16T16:58:58.726Z,8.90
2022-11-16T17:01:44.009Z,9.00
2022-11-16T17:04:29.803Z,8.90
2022-11-16T17:07:16.324Z,8.80
2022-11-16T17:10:01.793Z,8.80
2022-11-16T17:12:47.375Z,8.80
2022-11-16T17:15:32.793Z,8.90
2022-11-16T17:18:18.121Z,8.90
2022-11-16T17:21:05.727Z,8.90
2022-11-16T17:23:50.847Z,8.90
2022-11-16T17:26:36.194Z,9.00
2022-11-16T17:29:21.629Z,9.00
2022-11-16T17:32:07.261Z,9.00
2022-11-16T17:34:52.706Z,9.00
2022-11-16T17:37:38.313Z,11.20
2022-11-16T17:40:23.850Z,9.00
2022-11-16T17:43:09.277Z,9.00
2022-11-16T17:46:10.647Z,9.00
2022-11-16T17:48:56.752Z,8.90
2022-11-16T17:51:42.506Z,8.90
2022-11-16T17:54:27.832Z,9.00
2022-11-16T17:57:13.362Z,9.00
2022-11-16T17:59:58.843Z,8.90
2022-11-16T18:02:44.973Z,9.00
2022-11-16T18:05:30.450Z,9.00
2022-11-16T18:08:15.915Z,9.00
2022-11-16T18:11:10.112Z,9.00
2022-11-16T18:14:00.536Z,9.00
2022-11-16T18:16:47.826Z,10.10
2022-11-16T18:19:33.421Z,9.00
2022-11-16T18:22:19.001Z,9.00
2022-11-16T18:25:04.749Z,9.00
2022-11-16T18:27:54.214Z,9.00
2022-11-16T18:30:39.367Z,9.10
2022-11-16T18:33:30.271Z,9.10
2022-11-16T18:36:17.105Z,9.10
2022-11-16T18:39:02.732Z,9.10
2022-11-16T18:41:54.553Z,9.10
2022-11-16T18:44:40.909Z,9.10
2022-11-16T18:47:26.367Z,9.10
2022-11-16T18:50:18.981Z,8.90
2022-11-16T18:55:57.414Z,8.90
2022-11-16T19:01:37.268Z,8.80
2022-11-16T19:04:22.852Z,8.90
2022-11-16T19:07:08.129Z,8.90
2022-11-16T19:21:10.286Z,8.90
2022-11-16T19:23:56.748Z,8.80
2022-11-16T19:43:18.548Z,8.70
2022-11-16T19:46:06.767Z,8.70
2022-11-16T19:48:52.754Z,8.70
2022-11-16T19:51:38.029Z,8.70
2022-11-16T19:54:23.350Z,8.70
2022-11-16T19:57:08.831Z,8.70
2022-11-16T19:59:54.305Z,8.70
2022-11-16T20:02:39.680Z,8.70
2022-11-16T20:05:25.652Z,8.70
2022-11-16T20:08:11.364Z,8.70
2022-11-16T20:10:56.572Z,8.70
2022-11-16T20:13:43.832Z,8.60
2022-11-16T20:16:38.676Z,8.60
2022-11-16T20:19:24.440Z,8.50
2022-11-16T20:22:10.845Z,8.60
2022-11-16T20:24:56.356Z,8.60
2022-11-16T20:27:41.603Z,8.60
2022-11-16T20:30:27.084Z,8.60
2022-11-16T20:33:14.245Z,8.60
2022-11-16T20:36:12.077Z,8.50
2022-11-16T20:38:58.755Z,8.50
2022-11-16T20:41:44.940Z,8.50
2022-11-16T20:44:31.187Z,8.50
2022-11-16T20:47:16.228Z,8.40
2022-11-16T20:50:03.061Z,8.40
2022-11-16T20:52:52.513Z,8.40
2022-11-16T20:55:38.428Z,8.40
2022-11-16T20:58:24.564Z,7.80
2022-11-16T21:01:16.771Z,8.50
2022-11-16T21:04:05.331Z,8.50
2022-11-16T21:06:50.829Z,8.50
2022-11-16T21:09:56.313Z,8.40
2022-11-16T21:13:00.573Z,8.40
2022-11-16T21:15:55.057Z,8.40
2022-11-16T21:18:40.859Z,8.40
2022-11-16T21:21:27.069Z,8.40
2022-11-16T21:24:12.634Z,8.50
2022-11-16T21:26:58.134Z,8.40
2022-11-16T21:29:43.395Z,8.40
2022-11-16T21:32:28.952Z,8.40
2022-11-16T21:35:14.563Z,8.40
2022-11-16T21:38:01.311Z,8.40
2022-11-16T21:40:47.038Z,8.40
2022-11-16T21:43:36.095Z,8.40
2022-11-16T21:46:27.366Z,8.40
2022-11-16T21:49:12.566Z,8.40
2022-11-16T21:51:58.114Z,8.40
2022-11-16T21:54:51.073Z,8.40
2022-11-16T21:57:36.523Z,8.40
2022-11-16T22:00:22.146Z,8.40
2022-11-16T22:03:07.798Z,8.30
2022-11-16T22:06:22.993Z,8.30
2022-11-16T22:09:08.435Z,8.30
2022-11-16T22:11:53.827Z,8.30
2022-11-16T22:14:39.268Z,8.30
2022-11-16T22:17:24.940Z,8.40
2022-11-16T22:20:10.686Z,8.30
2022-11-16T22:22:56.148Z,8.30
2022-11-16T22:25:41.853Z,8.30
2022-11-16T22:28:27.114Z,8.30
2022-11-16T22:31:14.902Z,8.20
2022-11-16T22:34:00.132Z,8.20
2022-11-16T22:36:45.583Z,8.30
2022-11-16T22:39:30.971Z,8.30
2022-11-16T22:42:16.331Z,8.20
2022-11-16T22:45:01.882Z,8.20
2022-11-16T22:47:49.689Z,8.20
2022-11-16T22:50:39.070Z,8.20
2022-11-16T22:53:24.593Z,8.30
2022-11-16T22:56:10.507Z,8.20
2022-11-16T22:58:56.580Z,8.20
2022-11-16T23:01:41.886Z,8.20
2022-11-16T23:04:27.381Z,8.20
2022-11-16T23:07:13.027Z,8.20
2022-11-16T23:09:58.489Z,8.20
2022-11-16T23:13:02.494Z,8.20
2022-11-16T23:15:50.825Z,8.20
2022-11-16T23:18:36.140Z,8.20
2022-11-16T23:21:40.621Z,8.20
2022-11-16T23:24:44.764Z,8.20
2022-11-16T23:27:38.690Z,8.10
2022-11-16T23:30:24.601Z,8.20
2022-11-16T23:33:10.745Z,6.70
2022-11-16T23:35:55.808Z,7.50
2022-11-16T23:38:41.312Z,8.20
2022-11-16T23:41:45.124Z,8.20
2022-11-16T23:44:30.541Z,8.20
2022-11-16T23:47:16.157Z,8.10
2022-11-16T23:50:01.550Z,8.10
2022-11-16T23:52:47.205Z,8.10
2022-11-16T23:55:33.845Z,8.00
2022-11-16T23:58:19.226Z,8.00
